sensor_id;sensor_type;location;lat;lon;timestamp;P1;durP1;ratioP1;P2;durP2;ratioP2
68449;SDS011;67758;39.572;2.652;2023-04-15T00:00:38;7.83;;;1.30;;
68449;SDS011;67758;39.572;2.652;2023-04-15T00:03:04;8.93;;;1.30;;
68449;SDS011;67758;39.572;2.652;2023-04-15T00:05:30;7.88;;;1.40;;
68449;SDS011;67758;39.572;2.652;2023-04-15T00:07:56;5.88;;;0.98;;
68449;SDS011;67758;39.572;2.652;2023-04-15T00:10:23;8.40;;;1.15;;
68449;SDS011;67758;39.572;2.652;2023-04-15T00:12:49;7.87;;;1.20;;
68449;SDS011;67758;39.572;2.652;2023-04-15T00:15:16;6.95;;;1.02;;
68449;SDS011;67758;39.572;2.652;2023-04-15T00:17:42;6.20;;;1.35;;
68449;SDS011;67758;39.572;2.652;2023-04-15T00:20:08;11.10;;;1.30;;
68449;SDS011;67758;39.572;2.652;2023-04-15T00:22:34;7.97;;;1.00;;
68449;SDS011;67758;39.572;2.652;2023-04-15T00:25:00;9.27;;;1.05;;
68449;SDS011;67758;39.572;2.652;2023-04-15T00:27:26;7.45;;;1.13;;
68449;SDS011;67758;39.572;2.652;2023-04-15T00:29:52;9.63;;;1.63;;
68449;SDS011;67758;39.572;2.652;2023-04-15T00:32:17;6.47;;;0.90;;
68449;SDS011;67758;39.572;2.652;2023-04-15T00:34:44;9.60;;;1.10;;
68449;SDS011;67758;39.572;2.652;2023-04-15T00:37:10;10.82;;;1.10;;
68449;SDS011;67758;39.572;2.652;2023-04-15T00:39:36;8.57;;;1.40;;
68449;SDS011;67758;39.572;2.652;2023-04-15T00:42:03;6.77;;;0.70;;
68449;SDS011;67758;39.572;2.652;2023-04-15T00:44:29;10.60;;;1.10;;
68449;SDS011;67758;39.572;2.652;2023-04-15T00:46:54;8.00;;;1.00;;
68449;SDS011;67758;39.572;2.652;2023-04-15T00:49:21;8.03;;;0.80;;
68449;SDS011;67758;39.572;2.652;2023-04-15T00:51:47;5.70;;;0.75;;
68449;SDS011;67758;39.572;2.652;2023-04-15T00:54:13;8.95;;;0.95;;
68449;SDS011;67758;39.572;2.652;2023-04-15T00:56:38;8.33;;;0.80;;
68449;SDS011;67758;39.572;2.652;2023-04-15T00:59:05;12.00;;;1.17;;
68449;SDS011;67758;39.572;2.652;2023-04-15T01:01:32;7.82;;;0.80;;
68449;SDS011;67758;39.572;2.652;2023-04-15T01:03:59;8.88;;;1.10;;
68449;SDS011;67758;39.572;2.652;2023-04-15T01:06:25;10.73;;;0.97;;
68449;SDS011;67758;39.572;2.652;2023-04-15T01:08:52;10.67;;;1.33;;
68449;SDS011;67758;39.572;2.652;2023-04-15T01:11:18;7.18;;;0.98;;
68449;SDS011;67758;39.572;2.652;2023-04-15T01:13:45;7.05;;;0.70;;
68449;SDS011;67758;39.572;2.652;2023-04-15T01:16:11;11.13;;;1.00;;
68449;SDS011;67758;39.572;2.652;2023-04-15T01:18:38;7.82;;;0.85;;
68449;SDS011;67758;39.572;2.652;2023-04-15T01:21:05;5.67;;;0.80;;
68449;SDS011;67758;39.572;2.652;2023-04-15T01:23:31;11.35;;;1.05;;
68449;SDS011;67758;39.572;2.652;2023-04-15T01:25:58;9.35;;;0.90;;
68449;SDS011;67758;39.572;2.652;2023-04-15T01:28:24;9.43;;;0.82;;
68449;SDS011;67758;39.572;2.652;2023-04-15T01:30:50;8.37;;;0.70;;
68449;SDS011;67758;39.572;2.652;2023-04-15T01:33:40;6.88;;;0.80;;
68449;SDS011;67758;39.572;2.652;2023-04-15T01:36:07;8.20;;;1.00;;
68449;SDS011;67758;39.572;2.652;2023-04-15T01:38:34;10.52;;;0.90;;
68449;SDS011;67758;39.572;2.652;2023-04-15T01:41:00;8.30;;;0.80;;
68449;SDS011;67758;39.572;2.652;2023-04-15T01:43:28;6.77;;;0.73;;
68449;SDS011;67758;39.572;2.652;2023-04-15T01:45:54;9.95;;;1.00;;
68449;SDS011;67758;39.572;2.652;2023-04-15T01:48:20;10.75;;;1.20;;
68449;SDS011;67758;39.572;2.652;2023-04-15T01:50:47;10.37;;;0.93;;
68449;SDS011;67758;39.572;2.652;2023-04-15T01:53:13;8.07;;;0.85;;
68449;SDS011;67758;39.572;2.652;2023-04-15T01:55:39;6.00;;;0.70;;
68449;SDS011;67758;39.572;2.652;2023-04-15T01:58:05;9.20;;;0.93;;
68449;SDS011;67758;39.572;2.652;2023-04-15T02:00:31;8.35;;;0.90;;
68449;SDS011;67758;39.572;2.652;2023-04-15T02:02:56;7.97;;;0.93;;
68449;SDS011;67758;39.572;2.652;2023-04-15T02:05:23;7.25;;;1.05;;
68449;SDS011;67758;39.572;2.652;2023-04-15T02:07:50;10.77;;;1.05;;
68449;SDS011;67758;39.572;2.652;2023-04-15T02:10:15;7.30;;;1.00;;
68449;SDS011;67758;39.572;2.652;2023-04-15T02:12:41;7.30;;;1.03;;
68449;SDS011;67758;39.572;2.652;2023-04-15T02:15:07;7.53;;;1.17;;
68449;SDS011;67758;39.572;2.652;2023-04-15T02:17:34;8.48;;;1.30;;
68449;SDS011;67758;39.572;2.652;2023-04-15T02:20:02;7.13;;;0.93;;
68449;SDS011;67758;39.572;2.652;2023-04-15T02:22:30;10.68;;;1.35;;
68449;SDS011;67758;39.572;2.652;2023-04-15T02:24:56;15.27;;;1.30;;
68449;SDS011;67758;39.572;2.652;2023-04-15T02:27:21;8.43;;;1.23;;
68449;SDS011;67758;39.572;2.652;2023-04-15T02:29:47;10.57;;;1.40;;
68449;SDS011;67758;39.572;2.652;2023-04-15T02:32:15;7.53;;;0.80;;
68449;SDS011;67758;39.572;2.652;2023-04-15T02:34:41;5.43;;;0.93;;
68449;SDS011;67758;39.572;2.652;2023-04-15T02:37:10;9.00;;;1.13;;
68449;SDS011;67758;39.572;2.652;2023-04-15T02:39:37;5.70;;;0.82;;
68449;SDS011;67758;39.572;2.652;2023-04-15T02:42:03;3.47;;;0.60;;
68449;SDS011;67758;39.572;2.652;2023-04-15T02:44:30;7.45;;;1.00;;
68449;SDS011;67758;39.572;2.652;2023-04-15T02:46:57;4.72;;;0.95;;
68449;SDS011;67758;39.572;2.652;2023-04-15T02:49:23;10.23;;;1.17;;
68449;SDS011;67758;39.572;2.652;2023-04-15T02:51:50;4.03;;;0.82;;
68449;SDS011;67758;39.572;2.652;2023-04-15T02:54:16;12.07;;;1.10;;
68449;SDS011;67758;39.572;2.652;2023-04-15T02:56:42;9.15;;;1.05;;
68449;SDS011;67758;39.572;2.652;2023-04-15T02:59:08;9.18;;;1.30;;
68449;SDS011;67758;39.572;2.652;2023-04-15T03:01:33;12.70;;;1.10;;
68449;SDS011;67758;39.572;2.652;2023-04-15T03:03:59;10.45;;;0.85;;
68449;SDS011;67758;39.572;2.652;2023-04-15T03:06:25;8.00;;;1.73;;
68449;SDS011;67758;39.572;2.652;2023-04-15T03:08:51;9.38;;;1.10;;
68449;SDS011;67758;39.572;2.652;2023-04-15T03:11:18;12.00;;;1.50;;
68449;SDS011;67758;39.572;2.652;2023-04-15T03:13:44;13.90;;;1.23;;
68449;SDS011;67758;39.572;2.652;2023-04-15T03:16:10;8.13;;;0.60;;
68449;SDS011;67758;39.572;2.652;2023-04-15T03:18:35;14.75;;;1.17;;
68449;SDS011;67758;39.572;2.652;2023-04-15T03:21:02;6.07;;;1.27;;
68449;SDS011;67758;39.572;2.652;2023-04-15T03:23:27;7.73;;;0.90;;
68449;SDS011;67758;39.572;2.652;2023-04-15T03:25:55;6.53;;;0.73;;
68449;SDS011;67758;39.572;2.652;2023-04-15T03:28:22;12.05;;;1.50;;
68449;SDS011;67758;39.572;2.652;2023-04-15T03:30:48;6.80;;;0.70;;
68449;SDS011;67758;39.572;2.652;2023-04-15T03:33:13;7.07;;;0.80;;
68449;SDS011;67758;39.572;2.652;2023-04-15T03:35:39;8.13;;;1.00;;
68449;SDS011;67758;39.572;2.652;2023-04-15T03:38:04;7.83;;;0.73;;
68449;SDS011;67758;39.572;2.652;2023-04-15T03:40:30;4.93;;;0.50;;
68449;SDS011;67758;39.572;2.652;2023-04-15T03:42:59;5.70;;;0.80;;
68449;SDS011;67758;39.572;2.652;2023-04-15T03:45:24;8.20;;;0.93;;
68449;SDS011;67758;39.572;2.652;2023-04-15T03:47:50;8.77;;;0.80;;
68449;SDS011;67758;39.572;2.652;2023-04-15T03:50:15;6.70;;;0.73;;
68449;SDS011;67758;39.572;2.652;2023-04-15T03:52:41;7.03;;;0.90;;
68449;SDS011;67758;39.572;2.652;2023-04-15T03:55:07;9.38;;;1.13;;
68449;SDS011;67758;39.572;2.652;2023-04-15T03:57:33;7.67;;;0.80;;
68449;SDS011;67758;39.572;2.652;2023-04-15T04:00:03;5.55;;;0.82;;
68449;SDS011;67758;39.572;2.652;2023-04-15T04:02:30;7.50;;;1.10;;
68449;SDS011;67758;39.572;2.652;2023-04-15T04:04:55;5.53;;;0.70;;
68449;SDS011;67758;39.572;2.652;2023-04-15T04:07:22;4.22;;;0.85;;
68449;SDS011;67758;39.572;2.652;2023-04-15T04:09:47;6.50;;;0.57;;
68449;SDS011;67758;39.572;2.652;2023-04-15T04:12:13;6.72;;;0.80;;
68449;SDS011;67758;39.572;2.652;2023-04-15T04:14:39;5.87;;;0.90;;
68449;SDS011;67758;39.572;2.652;2023-04-15T04:17:04;7.82;;;1.05;;
68449;SDS011;67758;39.572;2.652;2023-04-15T04:19:30;5.63;;;0.73;;
68449;SDS011;67758;39.572;2.652;2023-04-15T04:21:56;4.97;;;0.73;;
68449;SDS011;67758;39.572;2.652;2023-04-15T04:24:22;5.27;;;0.87;;
68449;SDS011;67758;39.572;2.652;2023-04-15T04:26:47;9.95;;;1.10;;
68449;SDS011;67758;39.572;2.652;2023-04-15T04:29:13;6.57;;;0.70;;
68449;SDS011;67758;39.572;2.652;2023-04-15T04:31:38;8.43;;;0.93;;
68449;SDS011;67758;39.572;2.652;2023-04-15T04:34:04;8.40;;;0.93;;
68449;SDS011;67758;39.572;2.652;2023-04-15T04:36:30;6.47;;;0.90;;
68449;SDS011;67758;39.572;2.652;2023-04-15T04:38:55;7.97;;;1.07;;
68449;SDS011;67758;39.572;2.652;2023-04-15T04:41:21;7.93;;;0.80;;
68449;SDS011;67758;39.572;2.652;2023-04-15T04:43:47;4.88;;;0.70;;
68449;SDS011;67758;39.572;2.652;2023-04-15T04:46:13;8.75;;;1.13;;
68449;SDS011;67758;39.572;2.652;2023-04-15T04:48:38;7.30;;;0.80;;
68449;SDS011;67758;39.572;2.652;2023-04-15T04:51:04;4.77;;;0.80;;
68449;SDS011;67758;39.572;2.652;2023-04-15T04:53:29;5.47;;;0.85;;
68449;SDS011;67758;39.572;2.652;2023-04-15T04:55:55;6.73;;;1.00;;
68449;SDS011;67758;39.572;2.652;2023-04-15T04:58:21;5.22;;;1.10;;
68449;SDS011;67758;39.572;2.652;2023-04-15T05:00:46;4.13;;;0.60;;
68449;SDS011;67758;39.572;2.652;2023-04-15T05:03:12;7.95;;;0.95;;
68449;SDS011;67758;39.572;2.652;2023-04-15T05:05:38;5.37;;;1.00;;
68449;SDS011;67758;39.572;2.652;2023-04-15T05:08:05;9.18;;;1.25;;
68449;SDS011;67758;39.572;2.652;2023-04-15T05:10:31;5.72;;;0.73;;
68449;SDS011;67758;39.572;2.652;2023-04-15T05:12:57;8.90;;;0.90;;
68449;SDS011;67758;39.572;2.652;2023-04-15T05:15:22;7.75;;;0.75;;
68449;SDS011;67758;39.572;2.652;2023-04-15T05:17:48;8.70;;;1.00;;
68449;SDS011;67758;39.572;2.652;2023-04-15T05:20:13;5.30;;;1.00;;
68449;SDS011;67758;39.572;2.652;2023-04-15T05:22:39;10.23;;;1.10;;
68449;SDS011;67758;39.572;2.652;2023-04-15T05:25:05;6.97;;;0.80;;
68449;SDS011;67758;39.572;2.652;2023-04-15T05:27:31;7.93;;;1.20;;
68449;SDS011;67758;39.572;2.652;2023-04-15T05:29:57;8.43;;;1.10;;
68449;SDS011;67758;39.572;2.652;2023-04-15T05:32:22;9.07;;;1.47;;
68449;SDS011;67758;39.572;2.652;2023-04-15T05:34:48;9.75;;;1.42;;
68449;SDS011;67758;39.572;2.652;2023-04-15T05:37:13;9.07;;;1.27;;
68449;SDS011;67758;39.572;2.652;2023-04-15T05:39:39;13.15;;;1.55;;
68449;SDS011;67758;39.572;2.652;2023-04-15T05:42:05;8.67;;;1.13;;
68449;SDS011;67758;39.572;2.652;2023-04-15T05:44:31;10.20;;;1.10;;
68449;SDS011;67758;39.572;2.652;2023-04-15T05:46:56;6.93;;;1.03;;
68449;SDS011;67758;39.572;2.652;2023-04-15T05:49:22;13.65;;;1.35;;
68449;SDS011;67758;39.572;2.652;2023-04-15T05:51:48;8.13;;;1.00;;
68449;SDS011;67758;39.572;2.652;2023-04-15T05:54:14;14.80;;;1.10;;
68449;SDS011;67758;39.572;2.652;2023-04-15T05:56:40;9.15;;;1.40;;
68449;SDS011;67758;39.572;2.652;2023-04-15T05:59:05;12.43;;;1.20;;
68449;SDS011;67758;39.572;2.652;2023-04-15T06:01:32;8.67;;;0.90;;
68449;SDS011;67758;39.572;2.652;2023-04-15T06:03:58;5.80;;;0.90;;
68449;SDS011;67758;39.572;2.652;2023-04-15T06:06:24;13.00;;;1.15;;
68449;SDS011;67758;39.572;2.652;2023-04-15T06:08:51;15.02;;;1.17;;
68449;SDS011;67758;39.572;2.652;2023-04-15T06:11:17;11.15;;;1.40;;
68449;SDS011;67758;39.572;2.652;2023-04-15T06:13:45;8.15;;;1.00;;
68449;SDS011;67758;39.572;2.652;2023-04-15T06:16:11;13.67;;;0.90;;
68449;SDS011;67758;39.572;2.652;2023-04-15T06:18:36;11.57;;;0.87;;
68449;SDS011;67758;39.572;2.652;2023-04-15T06:21:02;10.48;;;1.35;;
68449;SDS011;67758;39.572;2.652;2023-04-15T06:23:28;11.20;;;1.00;;
68449;SDS011;67758;39.572;2.652;2023-04-15T06:25:54;7.40;;;0.75;;
68449;SDS011;67758;39.572;2.652;2023-04-15T06:28:19;10.40;;;1.30;;
68449;SDS011;67758;39.572;2.652;2023-04-15T06:30:45;9.23;;;1.30;;
68449;SDS011;67758;39.572;2.652;2023-04-15T06:33:10;9.53;;;1.30;;
68449;SDS011;67758;39.572;2.652;2023-04-15T06:35:36;10.20;;;1.03;;
68449;SDS011;67758;39.572;2.652;2023-04-15T06:38:03;12.40;;;1.20;;
68449;SDS011;67758;39.572;2.652;2023-04-15T06:40:28;7.22;;;1.17;;
68449;SDS011;67758;39.572;2.652;2023-04-15T06:42:54;6.50;;;0.80;;
68449;SDS011;67758;39.572;2.652;2023-04-15T06:45:20;11.35;;;1.58;;
68449;SDS011;67758;39.572;2.652;2023-04-15T06:47:45;8.03;;;0.80;;
68449;SDS011;67758;39.572;2.652;2023-04-15T06:50:11;11.87;;;1.23;;
68449;SDS011;67758;39.572;2.652;2023-04-15T06:52:36;6.43;;;0.98;;
68449;SDS011;67758;39.572;2.652;2023-04-15T06:55:02;7.00;;;1.33;;
68449;SDS011;67758;39.572;2.652;2023-04-15T06:57:28;9.05;;;1.38;;
68449;SDS011;67758;39.572;2.652;2023-04-15T06:59:53;12.97;;;1.00;;
68449;SDS011;67758;39.572;2.652;2023-04-15T07:02:20;7.03;;;0.60;;
68449;SDS011;67758;39.572;2.652;2023-04-15T07:04:46;10.38;;;1.05;;
68449;SDS011;67758;39.572;2.652;2023-04-15T07:07:11;9.87;;;1.17;;
68449;SDS011;67758;39.572;2.652;2023-04-15T07:09:37;7.53;;;0.95;;
68449;SDS011;67758;39.572;2.652;2023-04-15T07:12:03;9.20;;;1.30;;
68449;SDS011;67758;39.572;2.652;2023-04-15T07:14:28;7.28;;;0.90;;
68449;SDS011;67758;39.572;2.652;2023-04-15T07:16:54;6.77;;;0.93;;
68449;SDS011;67758;39.572;2.652;2023-04-15T07:19:20;7.30;;;0.90;;
68449;SDS011;67758;39.572;2.652;2023-04-15T07:21:46;6.17;;;0.80;;
68449;SDS011;67758;39.572;2.652;2023-04-15T07:24:11;7.15;;;1.15;;
68449;SDS011;67758;39.572;2.652;2023-04-15T07:26:41;7.03;;;1.40;;
68449;SDS011;67758;39.572;2.652;2023-04-15T07:29:06;7.30;;;0.70;;
68449;SDS011;67758;39.572;2.652;2023-04-15T07:31:32;7.73;;;0.97;;
68449;SDS011;67758;39.572;2.652;2023-04-15T07:33:57;10.20;;;1.15;;
68449;SDS011;67758;39.572;2.652;2023-04-15T07:36:23;8.23;;;1.27;;
68449;SDS011;67758;39.572;2.652;2023-04-15T07:38:49;8.40;;;0.80;;
68449;SDS011;67758;39.572;2.652;2023-04-15T07:41:15;10.75;;;1.38;;
68449;SDS011;67758;39.572;2.652;2023-04-15T07:43:41;6.20;;;1.00;;
68449;SDS011;67758;39.572;2.652;2023-04-15T07:46:07;8.25;;;0.82;;
68449;SDS011;67758;39.572;2.652;2023-04-15T07:48:32;10.37;;;1.03;;
68449;SDS011;67758;39.572;2.652;2023-04-15T07:50:58;5.35;;;0.93;;
68449;SDS011;67758;39.572;2.652;2023-04-15T07:53:24;9.80;;;1.10;;
68449;SDS011;67758;39.572;2.652;2023-04-15T07:55:50;7.97;;;1.20;;
68449;SDS011;67758;39.572;2.652;2023-04-15T07:58:16;9.70;;;0.82;;
68449;SDS011;67758;39.572;2.652;2023-04-15T08:00:41;9.57;;;1.30;;
68449;SDS011;67758;39.572;2.652;2023-04-15T08:03:07;5.38;;;0.80;;
68449;SDS011;67758;39.572;2.652;2023-04-15T08:05:33;7.73;;;0.83;;
68449;SDS011;67758;39.572;2.652;2023-04-15T08:07:58;4.23;;;0.70;;
68449;SDS011;67758;39.572;2.652;2023-04-15T08:10:24;8.27;;;1.38;;
68449;SDS011;67758;39.572;2.652;2023-04-15T08:12:50;12.03;;;1.50;;
68449;SDS011;67758;39.572;2.652;2023-04-15T08:15:18;11.48;;;1.02;;
68449;SDS011;67758;39.572;2.652;2023-04-15T08:17:44;7.68;;;1.00;;
68449;SDS011;67758;39.572;2.652;2023-04-15T08:20:10;17.55;;;2.30;;
68449;SDS011;67758;39.572;2.652;2023-04-15T08:22:37;12.18;;;1.35;;
68449;SDS011;67758;39.572;2.652;2023-04-15T08:25:03;10.60;;;0.90;;
68449;SDS011;67758;39.572;2.652;2023-04-15T08:27:29;10.65;;;1.88;;
68449;SDS011;67758;39.572;2.652;2023-04-15T08:29:55;12.52;;;1.52;;
68449;SDS011;67758;39.572;2.652;2023-04-15T08:32:20;7.97;;;1.27;;
68449;SDS011;67758;39.572;2.652;2023-04-15T08:34:46;12.27;;;1.70;;
68449;SDS011;67758;39.572;2.652;2023-04-15T08:37:12;13.10;;;1.30;;
68449;SDS011;67758;39.572;2.652;2023-04-15T08:39:39;7.60;;;1.00;;
68449;SDS011;67758;39.572;2.652;2023-04-15T08:42:07;11.95;;;1.90;;
68449;SDS011;67758;39.572;2.652;2023-04-15T08:44:55;9.57;;;1.10;;
68449;SDS011;67758;39.572;2.652;2023-04-15T08:47:24;9.68;;;1.25;;
68449;SDS011;67758;39.572;2.652;2023-04-15T08:49:54;6.32;;;0.68;;
68449;SDS011;67758;39.572;2.652;2023-04-15T08:52:19;12.90;;;1.20;;
68449;SDS011;67758;39.572;2.652;2023-04-15T08:54:45;9.60;;;1.50;;
68449;SDS011;67758;39.572;2.652;2023-04-15T08:57:12;6.47;;;0.90;;
68449;SDS011;67758;39.572;2.652;2023-04-15T08:59:38;12.02;;;1.17;;
68449;SDS011;67758;39.572;2.652;2023-04-15T09:02:05;8.30;;;1.20;;
68449;SDS011;67758;39.572;2.652;2023-04-15T09:04:32;11.43;;;1.67;;
68449;SDS011;67758;39.572;2.652;2023-04-15T09:06:58;11.17;;;1.43;;
68449;SDS011;67758;39.572;2.652;2023-04-15T09:09:24;12.48;;;2.15;;
68449;SDS011;67758;39.572;2.652;2023-04-15T09:11:49;6.83;;;1.10;;
68449;SDS011;67758;39.572;2.652;2023-04-15T09:14:15;6.32;;;1.00;;
68449;SDS011;67758;39.572;2.652;2023-04-15T09:16:57;6.13;;;0.80;;
68449;SDS011;67758;39.572;2.652;2023-04-15T09:19:24;19.17;;;2.73;;
68449;SDS011;67758;39.572;2.652;2023-04-15T09:21:51;8.90;;;1.30;;
68449;SDS011;67758;39.572;2.652;2023-04-15T09:24:18;8.05;;;1.20;;
68449;SDS011;67758;39.572;2.652;2023-04-15T09:26:44;10.18;;;1.55;;
68449;SDS011;67758;39.572;2.652;2023-04-15T09:29:10;10.03;;;1.60;;
68449;SDS011;67758;39.572;2.652;2023-04-15T09:31:39;7.10;;;0.80;;
68449;SDS011;67758;39.572;2.652;2023-04-15T09:34:05;9.48;;;1.23;;
68449;SDS011;67758;39.572;2.652;2023-04-15T09:36:41;7.80;;;1.00;;
68449;SDS011;67758;39.572;2.652;2023-04-15T09:39:17;8.15;;;1.52;;
68449;SDS011;67758;39.572;2.652;2023-04-15T09:41:43;10.00;;;1.20;;
68449;SDS011;67758;39.572;2.652;2023-04-15T09:44:24;11.60;;;1.42;;
68449;SDS011;67758;39.572;2.652;2023-04-15T09:46:51;8.20;;;1.25;;
68449;SDS011;67758;39.572;2.652;2023-04-15T09:49:17;6.45;;;1.00;;
68449;SDS011;67758;39.572;2.652;2023-04-15T09:51:43;6.33;;;1.10;;
68449;SDS011;67758;39.572;2.652;2023-04-15T09:54:09;12.38;;;1.35;;
68449;SDS011;67758;39.572;2.652;2023-04-15T09:56:35;5.03;;;0.80;;
68449;SDS011;67758;39.572;2.652;2023-04-15T09:59:07;10.40;;;1.48;;
68449;SDS011;67758;39.572;2.652;2023-04-15T10:01:33;11.90;;;1.60;;
68449;SDS011;67758;39.572;2.652;2023-04-15T10:04:03;10.95;;;1.42;;
68449;SDS011;67758;39.572;2.652;2023-04-15T10:06:29;11.77;;;1.55;;
68449;SDS011;67758;39.572;2.652;2023-04-15T10:08:58;5.45;;;0.98;;
68449;SDS011;67758;39.572;2.652;2023-04-15T10:11:25;8.02;;;1.40;;
68449;SDS011;67758;39.572;2.652;2023-04-15T10:13:53;8.83;;;1.33;;
68449;SDS011;67758;39.572;2.652;2023-04-15T10:16:19;10.70;;;1.50;;
68449;SDS011;67758;39.572;2.652;2023-04-15T10:18:48;10.90;;;1.77;;
68449;SDS011;67758;39.572;2.652;2023-04-15T10:21:18;13.82;;;2.53;;
68449;SDS011;67758;39.572;2.652;2023-04-15T10:23:47;11.52;;;1.50;;
68449;SDS011;67758;39.572;2.652;2023-04-15T10:26:13;10.17;;;0.97;;
68449;SDS011;67758;39.572;2.652;2023-04-15T10:28:41;8.52;;;1.58;;
68449;SDS011;67758;39.572;2.652;2023-04-15T10:31:07;12.95;;;2.00;;
68449;SDS011;67758;39.572;2.652;2023-04-15T10:33:35;8.88;;;2.08;;
68449;SDS011;67758;39.572;2.652;2023-04-15T10:36:02;11.75;;;1.88;;
68449;SDS011;67758;39.572;2.652;2023-04-15T10:41:15;7.07;;;1.40;;
68449;SDS011;67758;39.572;2.652;2023-04-15T10:43:44;8.73;;;1.42;;
68449;SDS011;67758;39.572;2.652;2023-04-15T10:46:12;9.73;;;1.50;;
68449;SDS011;67758;39.572;2.652;2023-04-15T10:48:45;6.32;;;1.15;;
68449;SDS011;67758;39.572;2.652;2023-04-15T10:51:12;10.03;;;1.40;;
68449;SDS011;67758;39.572;2.652;2023-04-15T10:53:38;10.93;;;1.98;;
68449;SDS011;67758;39.572;2.652;2023-04-15T10:56:06;10.13;;;1.85;;
68449;SDS011;67758;39.572;2.652;2023-04-15T10:58:41;8.27;;;2.10;;
68449;SDS011;67758;39.572;2.652;2023-04-15T11:01:07;10.82;;;2.58;;
68449;SDS011;67758;39.572;2.652;2023-04-15T11:03:35;11.33;;;2.50;;
68449;SDS011;67758;39.572;2.652;2023-04-15T11:06:03;11.02;;;2.42;;
68449;SDS011;67758;39.572;2.652;2023-04-15T11:11:23;9.53;;;2.90;;
68449;SDS011;67758;39.572;2.652;2023-04-15T11:14:13;14.38;;;3.83;;
68449;SDS011;67758;39.572;2.652;2023-04-15T11:16:43;10.20;;;3.55;;
68449;SDS011;67758;39.572;2.652;2023-04-15T11:19:11;10.40;;;2.70;;
68449;SDS011;67758;39.572;2.652;2023-04-15T11:21:36;11.37;;;3.13;;
68449;SDS011;67758;39.572;2.652;2023-04-15T11:24:02;12.33;;;4.43;;
68449;SDS011;67758;39.572;2.652;2023-04-15T11:26:28;10.32;;;2.50;;
68449;SDS011;67758;39.572;2.652;2023-04-15T11:28:53;9.77;;;2.70;;
68449;SDS011;67758;39.572;2.652;2023-04-15T11:31:19;10.37;;;3.63;;
68449;SDS011;67758;39.572;2.652;2023-04-15T11:33:57;9.80;;;2.55;;
68449;SDS011;67758;39.572;2.652;2023-04-15T11:36:27;10.00;;;3.38;;
68449;SDS011;67758;39.572;2.652;2023-04-15T11:38:54;13.30;;;3.17;;
68449;SDS011;67758;39.572;2.652;2023-04-15T11:41:22;14.68;;;3.10;;
68449;SDS011;67758;39.572;2.652;2023-04-15T11:43:48;10.88;;;2.67;;
68449;SDS011;67758;39.572;2.652;2023-04-15T11:46:14;9.18;;;2.95;;
68449;SDS011;67758;39.572;2.652;2023-04-15T11:48:44;11.20;;;3.00;;
68449;SDS011;67758;39.572;2.652;2023-04-15T11:51:11;12.77;;;2.90;;
68449;SDS011;67758;39.572;2.652;2023-04-15T11:53:47;7.22;;;2.75;;
68449;SDS011;67758;39.572;2.652;2023-04-15T11:56:23;6.05;;;2.22;;
68449;SDS011;67758;39.572;2.652;2023-04-15T11:58:57;5.55;;;2.45;;
68449;SDS011;67758;39.572;2.652;2023-04-15T12:01:37;7.32;;;2.83;;
68449;SDS011;67758;39.572;2.652;2023-04-15T12:04:14;12.60;;;3.47;;
68449;SDS011;67758;39.572;2.652;2023-04-15T12:06:43;6.47;;;2.05;;
68449;SDS011;67758;39.572;2.652;2023-04-15T12:09:10;12.45;;;2.45;;
68449;SDS011;67758;39.572;2.652;2023-04-15T12:16:47;9.60;;;1.87;;
68449;SDS011;67758;39.572;2.652;2023-04-15T12:19:33;9.00;;;2.28;;
68449;SDS011;67758;39.572;2.652;2023-04-15T12:22:04;12.45;;;3.00;;
68449;SDS011;67758;39.572;2.652;2023-04-15T12:24:33;8.85;;;2.22;;
68449;SDS011;67758;39.572;2.652;2023-04-15T12:27:01;8.50;;;2.40;;
68449;SDS011;67758;39.572;2.652;2023-04-15T12:29:32;8.40;;;2.27;;
68449;SDS011;67758;39.572;2.652;2023-04-15T12:36:12;11.45;;;1.90;;
68449;SDS011;67758;39.572;2.652;2023-04-15T12:39:05;13.20;;;1.90;;
68449;SDS011;67758;39.572;2.652;2023-04-15T12:41:57;11.93;;;1.80;;
68449;SDS011;67758;39.572;2.652;2023-04-15T12:44:31;11.83;;;2.90;;
68449;SDS011;67758;39.572;2.652;2023-04-15T12:47:04;9.45;;;1.75;;
68449;SDS011;67758;39.572;2.652;2023-04-15T12:49:31;8.52;;;1.80;;
68449;SDS011;67758;39.572;2.652;2023-04-15T12:51:58;7.40;;;2.05;;
68449;SDS011;67758;39.572;2.652;2023-04-15T12:54:31;7.18;;;1.45;;
68449;SDS011;67758;39.572;2.652;2023-04-15T13:03:00;8.00;;;1.83;;
68449;SDS011;67758;39.572;2.652;2023-04-15T13:05:40;12.55;;;2.22;;
68449;SDS011;67758;39.572;2.652;2023-04-15T13:08:11;11.68;;;1.60;;
68449;SDS011;67758;39.572;2.652;2023-04-15T13:10:45;7.67;;;1.67;;
68449;SDS011;67758;39.572;2.652;2023-04-15T13:13:24;7.53;;;1.80;;
68449;SDS011;67758;39.572;2.652;2023-04-15T13:15:52;6.40;;;1.20;;
68449;SDS011;67758;39.572;2.652;2023-04-15T13:18:24;5.88;;;1.60;;
68449;SDS011;67758;39.572;2.652;2023-04-15T13:20:50;12.50;;;1.83;;
68449;SDS011;67758;39.572;2.652;2023-04-15T13:23:15;12.88;;;2.50;;
68449;SDS011;67758;39.572;2.652;2023-04-15T13:25:41;7.53;;;1.90;;
68449;SDS011;67758;39.572;2.652;2023-04-15T13:28:07;7.25;;;1.90;;
68449;SDS011;67758;39.572;2.652;2023-04-15T13:30:36;5.95;;;1.38;;
68449;SDS011;67758;39.572;2.652;2023-04-15T13:33:02;5.05;;;1.67;;
68449;SDS011;67758;39.572;2.652;2023-04-15T13:35:28;7.60;;;1.90;;
68449;SDS011;67758;39.572;2.652;2023-04-15T13:37:54;8.48;;;1.63;;
68449;SDS011;67758;39.572;2.652;2023-04-15T13:40:20;6.97;;;1.33;;
68449;SDS011;67758;39.572;2.652;2023-04-15T13:42:46;6.60;;;1.67;;
68449;SDS011;67758;39.572;2.652;2023-04-15T13:45:11;6.33;;;1.10;;
68449;SDS011;67758;39.572;2.652;2023-04-15T13:47:37;8.20;;;1.30;;
68449;SDS011;67758;39.572;2.652;2023-04-15T13:50:03;8.13;;;1.57;;
68449;SDS011;67758;39.572;2.652;2023-04-15T13:52:29;6.00;;;1.30;;
68449;SDS011;67758;39.572;2.652;2023-04-15T13:54:55;9.50;;;1.13;;
68449;SDS011;67758;39.572;2.652;2023-04-15T13:57:20;6.78;;;1.30;;
68449;SDS011;67758;39.572;2.652;2023-04-15T13:59:46;8.23;;;1.63;;
68449;SDS011;67758;39.572;2.652;2023-04-15T14:02:12;9.23;;;1.50;;
68449;SDS011;67758;39.572;2.652;2023-04-15T14:04:37;8.40;;;1.27;;
68449;SDS011;67758;39.572;2.652;2023-04-15T14:07:03;6.40;;;1.67;;
68449;SDS011;67758;39.572;2.652;2023-04-15T14:09:29;5.50;;;1.17;;
68449;SDS011;67758;39.572;2.652;2023-04-15T14:11:54;7.63;;;2.03;;
68449;SDS011;67758;39.572;2.652;2023-04-15T14:14:20;7.77;;;1.30;;
68449;SDS011;67758;39.572;2.652;2023-04-15T14:16:46;9.48;;;1.38;;
68449;SDS011;67758;39.572;2.652;2023-04-15T14:19:12;11.57;;;1.40;;
68449;SDS011;67758;39.572;2.652;2023-04-15T14:21:38;7.10;;;1.40;;
68449;SDS011;67758;39.572;2.652;2023-04-15T14:24:04;11.10;;;1.70;;
68449;SDS011;67758;39.572;2.652;2023-04-15T14:26:30;5.53;;;1.30;;
68449;SDS011;67758;39.572;2.652;2023-04-15T14:28:55;5.25;;;1.63;;
68449;SDS011;67758;39.572;2.652;2023-04-15T14:31:21;6.97;;;2.07;;
68449;SDS011;67758;39.572;2.652;2023-04-15T14:33:47;9.20;;;1.85;;
68449;SDS011;67758;39.572;2.652;2023-04-15T14:36:12;10.93;;;2.03;;
68449;SDS011;67758;39.572;2.652;2023-04-15T14:38:38;9.93;;;2.10;;
68449;SDS011;67758;39.572;2.652;2023-04-15T14:41:07;10.65;;;2.90;;
68449;SDS011;67758;39.572;2.652;2023-04-15T14:43:34;7.10;;;2.03;;
68449;SDS011;67758;39.572;2.652;2023-04-15T14:46:00;9.45;;;1.52;;
68449;SDS011;67758;39.572;2.652;2023-04-15T14:48:26;8.33;;;2.10;;
68449;SDS011;67758;39.572;2.652;2023-04-15T14:50:52;7.65;;;1.67;;
68449;SDS011;67758;39.572;2.652;2023-04-15T14:53:17;13.98;;;2.53;;
68449;SDS011;67758;39.572;2.652;2023-04-15T14:55:43;14.30;;;2.70;;
68449;SDS011;67758;39.572;2.652;2023-04-15T14:58:09;10.18;;;2.42;;
68449;SDS011;67758;39.572;2.652;2023-04-15T15:00:36;8.55;;;2.33;;
68449;SDS011;67758;39.572;2.652;2023-04-15T15:03:04;11.98;;;2.88;;